Time;durP1;ratioP1;P1;durP2;ratioP2;P2;SDS_P1;SDS_P2;PMS_P1;PMS_P2;Temp;Humidity;BMP_temperature;BMP_pressure;BME280_temperature;BME280_humidity;BME280_pressure;Samples;Min_cycle;Max_cycle;Signal;HPM_P1;HPM_P2
2022/03/24 00:01:35;;;;;;;;;;;;;;;;;;5115723;28;19916;-77
2022/03/24 00:04:01;;;;;;;;;;;;;;;;;;5115643;28;19962;-77
2022/03/24 00:06:26;;;;;;;;;;;;;;;;;;5113465;28;19912;-77
2022/03/24 00:08:51;;;;;;;;;;;;;;;;;;5115625;28;19920;-76
2022/03/24 00:11:17;;;;;;;;;;;;;;;;;;5113822;28;19915;-76
2022/03/24 00:13:43;;;;;;;;;;;;;;;;;;5115414;28;19922;-76
2022/03/24 00:16:08;;;;;;;;;;;;;;;;;;5115122;28;19920;-77
2022/03/24 00:18:34;;;;;;;;;;;;;;;;;;5114746;28;19920;-76
2022/03/24 00:21:00;;;;;;;;;;;;;;;;;;5114930;28;19919;-76
2022/03/24 00:23:25;;;;;;;;;;;;;;;;;;5115275;28;19968;-77
2022/03/24 00:25:51;;;;;;;;;;;;;;;;;;5115278;28;19915;-76
2022/03/24 00:28:16;;;;;;;;;;;;;;;;;;5115292;28;19916;-76
2022/03/24 00:30:44;;;;;;;;;;;;;;;;;;5097129;28;19916;-76
2022/03/24 00:33:10;;;;;;;;;;;;;;;;;;5114973;28;20014;-76
2022/03/24 00:35:37;;;;;;;;;;;;;;;;;;5115042;28;19920;-76
2022/03/24 00:38:02;;;;;;;;;;;;;;;;;;5113721;28;20053;-76
2022/03/24 00:40:28;;;;;;;;;;;;;;;;;;5115034;28;20034;-76
2022/03/24 00:42:53;;;;;;;;;;;;;;;;;;5113798;28;19916;-76
2022/03/24 00:45:18;;;;;;;;;;;;;;;;;;5113658;28;19919;-76
2022/03/24 00:47:44;;;;;;;;;;;;;;;;;;5115265;28;19915;-76
2022/03/24 00:50:10;;;;;;;;;;;;;;;;;;5113853;28;19915;-77
2022/03/24 00:52:41;;;;;;;;;;;;;;;;;;5112625;28;19916;-76
2022/03/24 00:55:12;;;;;;;;;;;;;;;;;;5113266;28;20358;-76
2022/03/24 00:57:38;;;;;;;;;;;;;;;;;;5114841;28;19920;-76
2022/03/24 01:00:03;;;;;;;;;;;;;;;;;;5113170;28;19920;-76
2022/03/24 01:02:29;;;;;;;;;;;;;;;;;;5114852;28;19973;-76
2022/03/24 01:04:55;;;;;;;;;;;;;;;;;;5113422;28;19915;-76
2022/03/24 01:07:22;;;;;;;;;;;;;;;;;;5114619;28;20365;-76
2022/03/24 01:09:47;;;;;;;;;;;;;;;;;;5114606;28;19961;-76
2022/03/24 01:12:13;;;;;;;;;;;;;;;;;;5112977;28;19916;-76
2022/03/24 01:14:40;;;;;;;;;;;;;;;;;;5113084;28;19923;-76
2022/03/24 01:17:07;;;;;;;;;;;;;;;;;;5113155;28;19915;-76
2022/03/24 01:19:32;;;;;;;;;;;;;;;;;;5113149;28;19923;-76
2022/03/24 01:21:58;;;;;;;;;;;;;;;;;;5111927;28;20361;-76
2022/03/24 01:24:23;;;;;;;;;;;;;;;;;;5113161;28;19920;-76
2022/03/24 01:26:49;;;;;;;;;;;;;;;;;;5114563;28;19920;-76
2022/03/24 01:29:15;;;;;;;;;;;;;;;;;;5112988;28;19915;-76
2022/03/24 01:31:42;;;;;;;;;;;;;;;;;;5113017;28;19922;-76
2022/03/24 01:34:07;;;;;;;;;;;;;;;;;;5114085;28;19919;-76
2022/03/24 01:36:35;;;;;;;;;;;;;;;;;;5114029;28;19915;-76
2022/03/24 01:39:00;;;;;;;;;;;;;;;;;;5114123;28;19958;-76
2022/03/24 01:41:25;;;;;;;;;;;;;;;;;;5113028;28;20008;-76
2022/03/24 01:43:51;;;;;;;;;;;;;;;;;;5111693;28;20002;-76
2022/03/24 01:46:21;;;;;;;;;;;;;;;;;;5112355;28;20007;-76
2022/03/24 01:48:46;;;;;;;;;;;;;;;;;;5113712;28;20335;-76
2022/03/24 01:51:11;;;;;;;;;;;;;;;;;;5112567;28;19916;-76
2022/03/24 01:53:39;;;;;;;;;;;;;;;;;;5112747;28;19965;-76
2022/03/24 01:56:05;;;;;;;;;;;;;;;;;;5111830;28;19919;-76
2022/03/24 01:58:31;;;;;;;;;;;;;;;;;;5112708;28;19916;-76
2022/03/24 02:01:13;;;;;;;;;;;;;;;;;;5112366;28;19963;-76
2022/03/24 02:03:39;;;;;;;;;;;;;;;;;;5114045;28;19924;-76
2022/03/24 02:06:05;;;;;;;;;;;;;;;;;;5095810;28;19916;-76
2022/03/24 02:08:30;;;;;;;;;;;;;;;;;;5112703;28;19923;-76
2022/03/24 02:10:57;;;;;;;;;;;;;;;;;;5112635;28;20018;-76
2022/03/24 02:13:22;;;;;;;;;;;;;;;;;;5112222;28;19955;-76
2022/03/24 02:15:49;;;;;;;;;;;;;;;;;;5112626;28;19986;-76
2022/03/24 02:18:14;;;;;;;;;;;;;;;;;;5111776;28;19920;-76
2022/03/24 02:20:41;;;;;;;;;;;;;;;;;;5113884;28;20301;-76
2022/03/24 02:23:06;;;;;;;;;;;;;;;;;;5112400;28;19922;-76
2022/03/24 02:25:33;;;;;;;;;;;;;;;;;;5113693;28;19923;-76
2022/03/24 02:28:01;;;;;;;;;;;;;;;;;;5113684;28;20010;-76
2022/03/24 02:30:27;;;;;;;;;;;;;;;;;;5116259;28;19923;-76
2022/03/24 02:32:53;;;;;;;;;;;;;;;;;;5117428;28;19920;-76
2022/03/24 02:35:18;;;;;;;;;;;;;;;;;;5116243;28;20014;-76
2022/03/24 02:37:44;;;;;;;;;;;;;;;;;;5117406;28;19922;-76
2022/03/24 02:40:10;;;;;;;;;;;;;;;;;;5117203;27;20006;-76
2022/03/24 02:42:35;;;;;;;;;;;;;;;;;;5099068;28;19919;-76
2022/03/24 02:45:05;;;;;;;;;;;;;;;;;;5117399;28;20014;-76
2022/03/24 02:47:31;;;;;;;;;;;;;;;;;;5116986;28;20018;-76
2022/03/24 02:49:57;;;;;;;;;;;;;;;;;;5117824;28;19916;-76
2022/03/24 02:52:23;;;;;;;;;;;;;;;;;;5117697;28;20014;-76
2022/03/24 02:54:48;;;;;;;;;;;;;;;;;;5116755;28;19958;-76
2022/03/24 02:57:14;;;;;;;;;;;;;;;;;;5117144;28;19923;-76
2022/03/24 02:59:40;;;;;;;;;;;;;;;;;;5115832;28;19920;-76
2022/03/24 03:02:06;;;;;;;;;;;;;;;;;;5117088;28;20277;-76
2022/03/24 03:04:32;;;;;;;;;;;;;;;;;;5116702;28;20265;-76
2022/03/24 03:06:58;;;;;;;;;;;;;;;;;;5116860;28;19915;-76
2022/03/24 03:09:24;;;;;;;;;;;;;;;;;;5116841;27;19928;-76
2022/03/24 03:11:50;;;;;;;;;;;;;;;;;;5116765;28;19931;-76
2022/03/24 03:14:17;;;;;;;;;;;;;;;;;;5114530;28;19954;-75
2022/03/24 03:16:44;;;;;;;;;;;;;;;;;;5116853;28;19922;-76
2022/03/24 03:19:10;;;;;;;;;;;;;;;;;;5115355;28;19923;-76
2022/03/24 03:21:36;;;;;;;;;;;;;;;;;;5116717;28;19916;-76
2022/03/24 03:24:02;;;;;;;;;;;;;;;;;;5116345;28;20431;-76
2022/03/24 03:26:29;;;;;;;;;;;;;;;;;;5116496;28;19966;-76
2022/03/24 03:28:54;;;;;;;;;;;;;;;;;;5115450;28;20345;-76
2022/03/24 03:31:20;;;;;;;;;;;;;;;;;;5116419;28;19923;-76
2022/03/24 03:33:46;;;;;;;;;;;;;;;;;;5116459;28;20445;-76
2022/03/24 03:36:11;;;;;;;;;;;;;;;;;;5116212;28;19916;-76
2022/03/24 03:38:37;;;;;;;;;;;;;;;;;;5116140;28;19962;-76
2022/03/24 03:41:02;;;;;;;;;;;;;;;;;;5113921;28;20420;-76
2022/03/24 03:43:28;;;;;;;;;;;;;;;;;;5116277;28;20296;-76
2022/03/24 03:45:53;;;;;;;;;;;;;;;;;;5115558;27;19999;-76
2022/03/24 03:48:19;;;;;;;;;;;;;;;;;;5115853;28;20339;-76
2022/03/24 03:50:44;;;;;;;;;;;;;;;;;;5116216;28;19916;-76
2022/03/24 03:53:09;;;;;;;;;;;;;;;;;;5115768;28;19960;-76
2022/03/24 03:55:35;;;;;;;;;;;;;;;;;;5115997;28;20275;-76
2022/03/24 03:58:01;;;;;;;;;;;;;;;;;;5115962;28;19923;-76
2022/03/24 04:03:10;;;;;;;;;;;;;;;;;;5115878;28;19923;-76
2022/03/24 04:05:36;;;;;;;;;;;;;;;;;;5115474;28;19923;-75
2022/03/24 04:08:01;;;;;;;;;;;;;;;;;;5115555;28;20297;-76
2022/03/24 04:10:27;;;;;;;;;;;;;;;;;;5115728;28;19916;-76
2022/03/24 04:12:56;;;;;;;;;;;;;;;;;;5115554;28;19916;-76
2022/03/24 04:15:22;;;;;;;;;;;;;;;;;;5115455;28;19915;-75
2022/03/24 04:17:47;;;;;;;;;;;;;;;;;;5115466;28;20357;-76
2022/03/24 04:20:13;;;;;;;;;;;;;;;;;;5115003;28;20369;-76
2022/03/24 04:22:39;;;;;;;;;;;;;;;;;;5115495;28;19916;-75
2022/03/24 04:25:05;;;;;;;;;;;;;;;;;;5115248;28;20433;-76
2022/03/24 04:27:30;;;;;;;;;;;;;;;;;;5115288;28;19958;-76
2022/03/24 04:29:55;;;;;;;;;;;;;;;;;;5113973;28;19969;-75
2022/03/24 04:32:21;;;;;;;;;;;;;;;;;;5115167;28;19916;-77
2022/03/24 04:34:46;;;;;;;;;;;;;;;;;;5114823;28;20004;-76
2022/03/24 04:37:12;;;;;;;;;;;;;;;;;;5115144;28;20377;-76
2022/03/24 04:39:37;;;;;;;;;;;;;;;;;;5115057;28;20369;-76
2022/03/24 04:42:08;;;;;;;;;;;;;;;;;;5115100;27;19981;-76
2022/03/24 04:44:34;;;;;;;;;;;;;;;;;;5114924;27;19924;-76
2022/03/24 04:47:03;;;;;;;;;;;;;;;;;;5114621;28;20353;-76
2022/03/24 04:49:28;;;;;;;;;;;;;;;;;;5113944;28;20002;-76
2022/03/24 04:51:55;;;;;;;;;;;;;;;;;;5114823;27;19967;-76
2022/03/24 04:54:20;;;;;;;;;;;;;;;;;;5114729;28;19923;-76
2022/03/24 04:56:45;;;;;;;;;;;;;;;;;;5114653;28;19915;-76
2022/03/24 04:59:11;;;;;;;;;;;;;;;;;;5114795;28;20019;-76
2022/03/24 05:01:36;;;;;;;;;;;;;;;;;;5114797;28;19960;-76
2022/03/24 05:04:02;;;;;;;;;;;;;;;;;;5114553;28;19912;-76
2022/03/24 05:06:27;;;;;;;;;;;;;;;;;;5112865;28;19916;-76
2022/03/24 05:08:53;;;;;;;;;;;;;;;;;;5114512;28;20397;-76
2022/03/24 05:11:18;;;;;;;;;;;;;;;;;;5096237;28;19966;-76
2022/03/24 05:13:45;;;;;;;;;;;;;;;;;;5114281;28;20383;-76
2022/03/24 05:16:10;;;;;;;;;;;;;;;;;;5114517;28;19998;-76
2022/03/24 05:18:36;;;;;;;;;;;;;;;;;;5114077;27;20366;-76
2022/03/24 05:21:01;;;;;;;;;;;;;;;;;;5113676;28;19919;-76
2022/03/24 05:23:27;;;;;;;;;;;;;;;;;;5114329;28;19916;-76
2022/03/24 05:25:53;;;;;;;;;;;;;;;;;;5114430;28;19950;-75
2022/03/24 05:28:18;;;;;;;;;;;;;;;;;;5114332;28;19965;-76
2022/03/24 05:30:43;;;;;;;;;;;;;;;;;;5114008;28;19916;-75
2022/03/24 05:33:10;;;;;;;;;;;;;;;;;;5114165;28;19920;-76
2022/03/24 05:35:35;;;;;;;;;;;;;;;;;;5114152;28;20277;-76
2022/03/24 05:38:04;;;;;;;;;;;;;;;;;;5112977;28;19916;-76
2022/03/24 05:40:29;;;;;;;;;;;;;;;;;;5114077;28;19919;-76
2022/03/24 05:42:55;;;;;;;;;;;;;;;;;;5112864;28;20019;-76
2022/03/24 05:45:20;;;;;;;;;;;;;;;;;;5114272;28;19916;-76
2022/03/24 05:47:46;;;;;;;;;;;;;;;;;;5114048;28;19919;-76
2022/03/24 05:50:17;;;;;;;;;;;;;;;;;;5112512;28;20506;-76
2022/03/24 05:53:04;;;;;;;;;;;;;;;;;;5111632;28;19989;-76
2022/03/24 05:55:29;;;;;;;;;;;;;;;;;;5113631;28;19915;-75
2022/03/24 05:57:55;;;;;;;;;;;;;;;;;;5113969;28;19915;-76
2022/03/24 06:00:21;;;;;;;;;;;;;;;;;;5113333;28;20385;-76
2022/03/24 06:02:47;;;;;;;;;;;;;;;;;;5114018;28;19931;-76
2022/03/24 06:05:14;;;;;;;;;;;;;;;;;;5115662;28;19934;-75
2022/03/24 06:07:39;;;;;;;;;;;;;;;;;;5118059;28;19919;-75
2022/03/24 06:10:06;;;;;;;;;;;;;;;;;;5117909;28;19915;-76
2022/03/24 06:12:31;;;;;;;;;;;;;;;;;;5116713;28;19916;-76
2022/03/24 06:14:57;;;;;;;;;;;;;;;;;;5115541;28;19922;-75
2022/03/24 06:17:22;;;;;;;;;;;;;;;;;;5117588;28;19939;-76
2022/03/24 06:19:47;;;;;;;;;;;;;;;;;;5117765;28;20100;-76
2022/03/24 06:22:13;;;;;;;;;;;;;;;;;;5117615;28;19943;-76
2022/03/24 06:24:38;;;;;;;;;;;;;;;;;;5117751;28;19916;-76
2022/03/24 06:27:04;;;;;;;;;;;;;;;;;;5117715;27;20006;-76
2022/03/24 06:29:29;;;;;;;;;;;;;;;;;;5116346;28;19962;-76
2022/03/24 06:31:55;;;;;;;;;;;;;;;;;;5117774;28;19915;-76
2022/03/24 06:34:20;;;;;;;;;;;;;;;;;;5117361;28;19926;-76
2022/03/24 06:36:45;;;;;;;;;;;;;;;;;;5117398;28;19915;-76
2022/03/24 06:39:11;;;;;;;;;;;;;;;;;;5117505;28;19915;-75
2022/03/24 06:41:36;;;;;;;;;;;;;;;;;;5117566;28;19939;-76
2022/03/24 06:44:05;;;;;;;;;;;;;;;;;;5114996;28;20046;-76
2022/03/24 06:46:30;;;;;;;;;;;;;;;;;;5117275;28;20427;-76
2022/03/24 06:48:56;;;;;;;;;;;;;;;;;;5116909;28;20011;-76
2022/03/24 06:51:21;;;;;;;;;;;;;;;;;;5099044;28;19922;-76
2022/03/24 06:53:46;;;;;;;;;;;;;;;;;;5116898;28;20346;-76
2022/03/24 06:56:12;;;;;;;;;;;;;;;;;;5117388;28;20368;-75
2022/03/24 06:58:38;;;;;;;;;;;;;;;;;;5117433;28;19993;-78
2022/03/24 07:01:03;;;;;;;;;;;;;;;;;;5117789;28;20482;-77
2022/03/24 07:03:29;;;;;;;;;;;;;;;;;;5115679;28;20365;-76
2022/03/24 07:05:54;;;;;;;;;;;;;;;;;;5115930;28;19916;-77
2022/03/24 07:08:19;;;;;;;;;;;;;;;;;;5117092;28;19991;-77
2022/03/24 07:10:46;;;;;;;;;;;;;;;;;;5117271;28;20369;-78
2022/03/24 07:13:11;;;;;;;;;;;;;;;;;;5118264;28;19972;-77
2022/03/24 07:15:36;;;;;;;;;;;;;;;;;;5119052;28;19915;-77
2022/03/24 07:18:02;;;;;;;;;;;;;;;;;;5115332;28;20018;-77
2022/03/24 07:20:27;;;;;;;;;;;;;;;;;;5115704;28;20426;-77
2022/03/24 07:22:53;;;;;;;;;;;;;;;;;;5118101;28;20300;-78
2022/03/24 07:25:18;;;;;;;;;;;;;;;;;;5116808;28;19920;-78
2022/03/24 07:27:44;;;;;;;;;;;;;;;;;;5118829;28;20378;-78
2022/03/24 07:30:10;;;;;;;;;;;;;;;;;;5117627;28;19990;-77
2022/03/24 07:32:35;;;;;;;;;;;;;;;;;;5118796;28;19916;-78
2022/03/24 07:35:01;;;;;;;;;;;;;;;;;;5119786;28;19916;-79
2022/03/24 07:37:27;;;;;;;;;;;;;;;;;;5119075;28;20322;-78
2022/03/24 07:39:52;;;;;;;;;;;;;;;;;;5118702;27;19927;-77
2022/03/24 07:42:18;;;;;;;;;;;;;;;;;;5116824;28;19998;-78
2022/03/24 07:44:44;;;;;;;;;;;;;;;;;;5118322;28;19919;-81
2022/03/24 07:47:09;;;;;;;;;;;;;;;;;;5116590;28;19916;-80
2022/03/24 07:49:34;;;;;;;;;;;;;;;;;;5117351;28;20002;-77
2022/03/24 07:52:01;;;;;;;;;;;;;;;;;;5116181;28;19919;-77
2022/03/24 07:54:45;;;;;;;;;;;;;;;;;;5115777;28;19922;-76
2022/03/24 07:57:11;;;;;;;;;;;;;;;;;;5115006;28;19976;-76
2022/03/24 07:59:36;;;;;;;;;;;;;;;;;;5114843;28;19919;-75
2022/03/24 08:02:01;;;;;;;;;;;;;;;;;;5115715;28;20002;-76
2022/03/24 08:04:27;;;;;;;;;;;;;;;;;;5115843;28;19922;-75
2022/03/24 08:06:52;;;;;;;;;;;;;;;;;;5115848;28;20425;-76
2022/03/24 08:09:18;;;;;;;;;;;;;;;;;;5114511;28;20408;-75
2022/03/24 08:11:43;;;;;;;;;;;;;;;;;;5115340;28;19915;-75
2022/03/24 08:14:09;;;;;;;;;;;;;;;;;;5114602;28;20281;-75
2022/03/24 08:16:34;;;;;;;;;;;;;;;;;;5115574;27;20361;-76
2022/03/24 08:19:00;;;;;;;;;;;;;;;;;;5114442;28;19916;-76
2022/03/24 08:21:26;;;;;;;;;;;;;;;;;;5115193;28;19919;-75
2022/03/24 08:23:51;;;;;;;;;;;;;;;;;;5115273;28;19938;-75
2022/03/24 08:26:17;;;;;;;;;;;;;;;;;;5115346;28;19986;-75
2022/03/24 08:28:42;;;;;;;;;;;;;;;;;;5114795;28;20395;-75
2022/03/24 08:31:08;;;;;;;;;;;;;;;;;;5115551;28;19916;-75
2022/03/24 08:33:33;;;;;;;;;;;;;;;;;;5115368;28;19989;-75
2022/03/24 08:35:59;;;;;;;;;;;;;;;;;;5115376;28;19972;-74
2022/03/24 08:38:25;;;;;;;;;;;;;;;;;;5115191;28;19966;-74
2022/03/24 08:40:51;;;;;;;;;;;;;;;;;;5114820;28;19975;-73
2022/03/24 08:43:16;;;;;;;;;;;;;;;;;;5114920;28;19923;-78
2022/03/24 08:45:41;;;;;;;;;;;;;;;;;;5117098;28;19915;-79
2022/03/24 08:48:07;;;;;;;;;;;;;;;;;;5117020;28;19915;-78
2022/03/24 08:50:34;;;;;;;;;;;;;;;;;;5117195;28;19961;-78
2022/03/24 08:53:00;;;;;;;;;;;;;;;;;;5117666;28;19959;-82
2022/03/24 08:55:25;;;;;;;;;;;;;;;;;;5116582;28;19938;-80
2022/03/24 08:57:51;;;;;;;;;;;;;;;;;;5118650;27;19916;-81
2022/03/24 09:00:17;;;;;;;;;;;;;;;;;;5119116;28;20274;-83
2022/03/24 09:02:45;;;;;;;;;;;;;;;;;;5118496;28;20392;-81
2022/03/24 09:05:11;;;;;;;;;;;;;;;;;;5118853;28;19923;-85
2022/03/24 09:07:37;;;;;;;;;;;;;;;;;;5120477;28;20381;-83
2022/03/24 09:10:05;;;;;;;;;;;;;;;;;;5115619;28;19916;-77
2022/03/24 09:12:31;;;;;;;;;;;;;;;;;;5114653;28;19978;-77
2022/03/24 09:14:56;;;;;;;;;;;;;;;;;;5113676;28;19923;-77
2022/03/24 09:17:22;;;;;;;;;;;;;;;;;;5114936;28;19916;-78
2022/03/24 09:19:47;;;;;;;;;;;;;;;;;;5114299;28;19919;-77
2022/03/24 09:22:12;;;;;;;;;;;;;;;;;;5114478;28;19915;-77
2022/03/24 09:24:37;;;;;;;;;;;;;;;;;;5114349;28;19976;-77
2022/03/24 09:27:05;;;;;;;;;;;;;;;;;;5114430;28;19915;-77
2022/03/24 09:29:31;;;;;;;;;;;;;;;;;;5113378;28;19969;-77
2022/03/24 09:31:56;;;;;;;;;;;;;;;;;;5113822;28;20355;-77
2022/03/24 09:34:22;;;;;;;;;;;;;;;;;;5114957;28;19946;-77
2022/03/24 09:36:47;;;;;;;;;;;;;;;;;;5115061;28;19916;-77
2022/03/24 09:39:14;;;;;;;;;;;;;;;;;;5113073;28;20014;-77
2022/03/24 09:41:40;;;;;;;;;;;;;;;;;;5114530;28;19942;-78
2022/03/24 09:44:07;;;;;;;;;;;;;;;;;;5112272;28;19919;-77
2022/03/24 09:46:32;;;;;;;;;;;;;;;;;;5113614;28;19924;-77
2022/03/24 09:48:58;;;;;;;;;;;;;;;;;;5115185;28;19978;-77
2022/03/24 09:51:27;;;;;;;;;;;;;;;;;;5114058;28;19926;-77
2022/03/24 09:53:53;;;;;;;;;;;;;;;;;;5113931;28;19984;-77
2022/03/24 09:56:18;;;;;;;;;;;;;;;;;;5113315;28;20345;-77
2022/03/24 09:58:44;;;;;;;;;;;;;;;;;;5113970;28;19916;-79
2022/03/24 10:01:10;;;;;;;;;;;;;;;;;;5116903;28;19941;-80
2022/03/24 10:03:35;;;;;;;;;;;;;;;;;;5116559;28;19920;-78
2022/03/24 10:06:04;;;;;;;;;;;;;;;;;;5117084;28;19976;-84
2022/03/24 10:08:30;;;;;;;;;;;;;;;;;;5118975;28;19920;-85
2022/03/24 10:11:05;;;;;;;;;;;;;;;;;;5100614;28;19981;-85
2022/03/24 10:13:41;;;;;;;;;;;;;;;;;;5120538;28;19923;-79
2022/03/24 10:16:07;;;;;;;;;;;;;;;;;;5138505;28;20300;-80
2022/03/24 10:18:32;;;;;;;;;;;;;;;;;;5142196;27;20002;-83
2022/03/24 10:21:00;;;;;;;;;;;;;;;;;;5141574;28;19950;-84
2022/03/24 10:23:25;;;;;;;;;;;;;;;;;;5138441;27;19911;-85
2022/03/24 10:25:52;;;;;;;;;;;;;;;;;;5136464;27;20351;-84
2022/03/24 10:28:18;;;;;;;;;;;;;;;;;;5136029;27;20437;-77
2022/03/24 10:30:49;;;;;;;;;;;;;;;;;;5134836;27;19915;-78
2022/03/24 10:33:35;;;;;;;;;;;;;;;;;;5134918;28;19919;-75
2022/03/24 10:36:27;;;;;;;;;;;;;;;;;;5134375;28;19960;-75
2022/03/24 10:39:04;;;;;;;;;;;;;;;;;;5134493;27;19959;-76
2022/03/24 10:41:30;;;;;;;;;;;;;;;;;;5133405;27;19930;-77
2022/03/24 10:43:57;;;;;;;;;;;;;;;;;;5133109;27;20372;-76
2022/03/24 10:46:23;;;;;;;;;;;;;;;;;;5114972;28;20293;-75
2022/03/24 10:48:49;;;;;;;;;;;;;;;;;;5114207;28;19926;-75
2022/03/24 10:51:24;;;;;;;;;;;;;;;;;;5115944;28;19920;-76
2022/03/24 10:53:50;;;;;;;;;;;;;;;;;;5117058;28;19922;-76
2022/03/24 10:56:18;;;;;;;;;;;;;;;;;;5116800;28;20347;-76
2022/03/24 10:58:47;;;;;;;;;;;;;;;;;;5117472;28;19918;-76
2022/03/24 11:01:15;;;;;;;;;;;;;;;;;;5117200;28;20018;-77
2022/03/24 11:03:40;;;;;;;;;;;;;;;;;;5117550;28;20022;-77
2022/03/24 11:06:10;;;;;;;;;;;;;;;;;;5117752;28;19955;-75
2022/03/24 11:08:36;;;;;;;;;;;;;;;;;;5116762;28;19958;-78
2022/03/24 11:11:05;;;;;;;;;;;;;;;;;;5115603;28;19962;-75
2022/03/24 11:13:40;;;;;;;;;;;;;;;;;;5116768;28;19959;-76
2022/03/24 11:16:05;;;;;;;;;;;;;;;;;;5116024;28;19916;-75
2022/03/24 11:18:31;;;;;;;;;;;;;;;;;;5117243;27;19916;-77
2022/03/24 11:21:09;;;;;;;;;;;;;;;;;;5116629;28;19927;-77
2022/03/24 11:23:39;;;;;;;;;;;;;;;;;;5116612;28;20043;-77
2022/03/24 11:26:05;;;;;;;;;;;;;;;;;;5116747;28;20430;-78
2022/03/24 11:28:33;;;;;;;;;;;;;;;;;;5116688;27;19916;-78
2022/03/24 11:31:02;;;;;;;;;;;;;;;;;;5116605;28;19973;-78
2022/03/24 11:33:27;;;;;;;;;;;;;;;;;;5116285;28;20265;-77
2022/03/24 11:35:53;;;;;;;;;;;;;;;;;;5116569;28;20007;-78
2022/03/24 11:38:19;;;;;;;;;;;;;;;;;;5115207;28;19920;-77
2022/03/24 11:40:45;;;;;;;;;;;;;;;;;;5098294;28;20386;-77
2022/03/24 11:43:14;;;;;;;;;;;;;;;;;;5115248;28;19916;-77
2022/03/24 11:45:48;;;;;;;;;;;;;;;;;;5131856;27;19919;-77
2022/03/24 11:48:14;;;;;;;;;;;;;;;;;;5136358;27;19923;-77
2022/03/24 11:50:42;;;;;;;;;;;;;;;;;;5136883;27;19916;-78
2022/03/24 11:53:09;;;;;;;;;;;;;;;;;;5136644;27;19967;-77
2022/03/24 11:55:37;;;;;;;;;;;;;;;;;;5136391;27;19968;-77
2022/03/24 11:58:03;;;;;;;;;;;;;;;;;;5136553;27;19915;-78
2022/03/24 12:00:28;;;;;;;;;;;;;;;;;;5136410;27;19919;-77
2022/03/24 12:02:58;;;;;;;;;;;;;;;;;;5135535;27;19915;-77
2022/03/24 12:05:43;;;;;;;;;;;;;;;;;;5136525;27;19922;-77
2022/03/24 12:08:08;;;;;;;;;;;;;;;;;;5136587;27;20464;-77
2022/03/24 12:10:34;;;;;;;;;;;;;;;;;;5136544;27;19968;-77
2022/03/24 12:13:00;;;;;;;;;;;;;;;;;;5136358;27;19921;-77
2022/03/24 12:15:26;;;;;;;;;;;;;;;;;;5121376;27;19916;-77
2022/03/24 12:18:05;;;;;;;;;;;;;;;;;;5115850;28;19923;-77
2022/03/24 12:20:40;;;;;;;;;;;;;;;;;;5115435;28;20308;-77
2022/03/24 12:23:05;;;;;;;;;;;;;;;;;;5115561;28;19916;-77
2022/03/24 12:25:32;;;;;;;;;;;;;;;;;;5115381;28;20010;-77
2022/03/24 12:27:57;;;;;;;;;;;;;;;;;;5115395;27;19969;-77
2022/03/24 12:30:24;;;;;;;;;;;;;;;;;;5115384;28;19915;-77
2022/03/24 12:33:10;;;;;;;;;;;;;;;;;;5115445;28;19927;-77
2022/03/24 12:35:45;;;;;;;;;;;;;;;;;;5114920;28;19916;-77
2022/03/24 12:38:26;;;;;;;;;;;;;;;;;;5115136;28;19915;-77
2022/03/24 12:41:04;;;;;;;;;;;;;;;;;;5114873;28;20385;-77
2022/03/24 12:43:29;;;;;;;;;;;;;;;;;;5113908;28;19953;-77
2022/03/24 12:46:14;;;;;;;;;;;;;;;;;;5115152;28;19951;-77
2022/03/24 12:48:39;;;;;;;;;;;;;;;;;;5114303;28;20363;-77
2022/03/24 12:51:22;;;;;;;;;;;;;;;;;;5115232;28;19916;-77
2022/03/24 12:53:58;;;;;;;;;;;;;;;;;;5115286;28;19916;-77
2022/03/24 12:56:26;;;;;;;;;;;;;;;;;;5116136;27;19927;-79
2022/03/24 12:58:56;;;;;;;;;;;;;;;;;;5115244;28;19916;-77
2022/03/24 13:01:22;;;;;;;;;;;;;;;;;;5115744;28;19990;-79
2022/03/24 13:03:54;;;;;;;;;;;;;;;;;;5115277;28;19920;-77
2022/03/24 13:06:20;;;;;;;;;;;;;;;;;;5115287;28;20304;-76
2022/03/24 13:09:05;;;;;;;;;;;;;;;;;;5115885;28;19915;-80
2022/03/24 13:11:47;;;;;;;;;;;;;;;;;;5114730;28;20548;-76
2022/03/24 13:14:12;;;;;;;;;;;;;;;;;;5113662;28;19968;-76
2022/03/24 13:16:38;;;;;;;;;;;;;;;;;;5114469;28;19916;-78
2022/03/24 13:19:03;;;;;;;;;;;;;;;;;;5118198;28;20412;-78
2022/03/24 13:21:28;;;;;;;;;;;;;;;;;;5122188;28;19924;-77
2022/03/24 13:23:54;;;;;;;;;;;;;;;;;;5118885;28;19916;-79
2022/03/24 13:26:19;;;;;;;;;;;;;;;;;;5114914;28;19915;-74
2022/03/24 13:28:45;;;;;;;;;;;;;;;;;;5113466;28;19923;-81
2022/03/24 13:31:10;;;;;;;;;;;;;;;;;;5117012;28;20026;-79
2022/03/24 13:33:36;;;;;;;;;;;;;;;;;;5117320;28;19926;-77
2022/03/24 13:36:01;;;;;;;;;;;;;;;;;;5115957;28;19920;-77
2022/03/24 13:38:27;;;;;;;;;;;;;;;;;;5095474;28;20270;-76
2022/03/24 13:40:54;;;;;;;;;;;;;;;;;;5116133;28;19920;-76
2022/03/24 13:43:21;;;;;;;;;;;;;;;;;;5114532;28;20385;-77
2022/03/24 13:45:49;;;;;;;;;;;;;;;;;;5116060;28;19916;-80
2022/03/24 13:48:15;;;;;;;;;;;;;;;;;;5110152;28;19924;-76
2022/03/24 13:50:42;;;;;;;;;;;;;;;;;;5109061;28;19939;-73
2022/03/24 13:53:15;;;;;;;;;;;;;;;;;;5091891;28;19947;-74
2022/03/24 13:55:41;;;;;;;;;;;;;;;;;;5093313;28;20366;-76
2022/03/24 13:58:10;;;;;;;;;;;;;;;;;;5092947;28;19912;-75
2022/03/24 14:00:42;;;;;;;;;;;;;;;;;;5109451;28;20031;-75
2022/03/24 14:03:23;;;;;;;;;;;;;;;;;;5093275;28;20361;-74
2022/03/24 14:05:54;;;;;;;;;;;;;;;;;;5093393;28;19916;-76
2022/03/24 14:08:29;;;;;;;;;;;;;;;;;;5091185;28;19920;-75
2022/03/24 14:11:00;;;;;;;;;;;;;;;;;;5092874;28;20282;-76
2022/03/24 14:13:34;;;;;;;;;;;;;;;;;;5094222;28;19916;-74
2022/03/24 14:16:19;;;;;;;;;;;;;;;;;;5090702;28;20014;-76
2022/03/24 14:19:03;;;;;;;;;;;;;;;;;;5093597;28;19916;-75
2022/03/24 14:21:49;;;;;;;;;;;;;;;;;;5093586;28;19920;-74
2022/03/24 14:24:33;;;;;;;;;;;;;;;;;;5092956;28;19920;-74
2022/03/24 14:27:06;;;;;;;;;;;;;;;;;;5096527;28;19942;-74
2022/03/24 14:29:36;;;;;;;;;;;;;;;;;;5097423;28;20373;-76
2022/03/24 14:32:09;;;;;;;;;;;;;;;;;;5079810;28;19920;-74
2022/03/24 14:34:34;;;;;;;;;;;;;;;;;;5096671;28;19928;-76
2022/03/24 14:37:11;;;;;;;;;;;;;;;;;;5078810;28;20040;-74
2022/03/24 14:39:49;;;;;;;;;;;;;;;;;;5097354;28;19916;-72
2022/03/24 14:42:18;;;;;;;;;;;;;;;;;;5096085;28;20298;-72
2022/03/24 14:44:43;;;;;;;;;;;;;;;;;;5104497;28;19916;-70
2022/03/24 14:47:09;;;;;;;;;;;;;;;;;;5117041;28;19996;-75
2022/03/24 14:49:34;;;;;;;;;;;;;;;;;;5117130;28;19920;-73
2022/03/24 14:51:59;;;;;;;;;;;;;;;;;;5115690;28;19916;-71
2022/03/24 14:54:26;;;;;;;;;;;;;;;;;;5117173;28;19916;-74
2022/03/24 14:56:53;;;;;;;;;;;;;;;;;;5117509;28;19915;-73
2022/03/24 14:59:18;;;;;;;;;;;;;;;;;;5117646;28;19919;-77
2022/03/24 15:01:43;;;;;;;;;;;;;;;;;;5118871;27;20065;-72
2022/03/24 15:04:09;;;;;;;;;;;;;;;;;;5116867;28;19916;-75
2022/03/24 15:06:34;;;;;;;;;;;;;;;;;;5116895;28;19915;-75
2022/03/24 15:09:00;;;;;;;;;;;;;;;;;;5117006;28;20007;-72
2022/03/24 15:11:25;;;;;;;;;;;;;;;;;;5115731;28;20015;-73
2022/03/24 15:16:35;;;;;;;;;;;;;;;;;;5115961;28;19924;-73
2022/03/24 15:19:01;;;;;;;;;;;;;;;;;;5116709;28;19920;-73
2022/03/24 15:21:27;;;;;;;;;;;;;;;;;;5116807;28;19965;-76
2022/03/24 15:23:54;;;;;;;;;;;;;;;;;;5116602;27;19969;-74
2022/03/24 15:26:20;;;;;;;;;;;;;;;;;;5116583;28;20428;-73
2022/03/24 15:28:47;;;;;;;;;;;;;;;;;;5116422;28;19916;-76
2022/03/24 15:31:12;;;;;;;;;;;;;;;;;;5116377;28;19923;-75
2022/03/24 15:33:37;;;;;;;;;;;;;;;;;;5116181;28;19920;-75
2022/03/24 15:36:03;;;;;;;;;;;;;;;;;;5115216;28;19915;-75
2022/03/24 15:38:28;;;;;;;;;;;;;;;;;;5115149;28;19919;-75
2022/03/24 15:40:54;;;;;;;;;;;;;;;;;;5116265;28;19919;-74
2022/03/24 15:43:19;;;;;;;;;;;;;;;;;;5115252;28;19961;-76
2022/03/24 15:45:44;;;;;;;;;;;;;;;;;;5114656;28;19923;-74
2022/03/24 15:48:10;;;;;;;;;;;;;;;;;;5116080;28;19916;-75
2022/03/24 15:50:36;;;;;;;;;;;;;;;;;;5115404;28;19916;-75
2022/03/24 15:53:01;;;;;;;;;;;;;;;;;;5116177;28;20006;-76
2022/03/24 15:55:26;;;;;;;;;;;;;;;;;;5116103;28;20018;-76
2022/03/24 15:57:52;;;;;;;;;;;;;;;;;;5115082;28;19965;-76
2022/03/24 16:00:20;;;;;;;;;;;;;;;;;;5115763;28;19926;-76
2022/03/24 16:02:46;;;;;;;;;;;;;;;;;;5115879;28;19915;-76
2022/03/24 16:05:12;;;;;;;;;;;;;;;;;;5115942;28;19923;-75
2022/03/24 16:07:38;;;;;;;;;;;;;;;;;;5115979;28;19941;-75
2022/03/24 16:10:05;;;;;;;;;;;;;;;;;;5115818;28;20281;-76
2022/03/24 16:12:30;;;;;;;;;;;;;;;;;;5115771;28;20269;-75
2022/03/24 16:14:55;;;;;;;;;;;;;;;;;;5113335;28;20384;-74
2022/03/24 16:17:21;;;;;;;;;;;;;;;;;;5115552;28;19923;-75
2022/03/24 16:19:46;;;;;;;;;;;;;;;;;;5115568;28;19923;-75
2022/03/24 16:22:12;;;;;;;;;;;;;;;;;;5115192;28;19985;-75
2022/03/24 16:24:37;;;;;;;;;;;;;;;;;;5115341;28;19915;-75
2022/03/24 16:27:03;;;;;;;;;;;;;;;;;;5114124;28;20242;-75
2022/03/24 16:29:29;;;;;;;;;;;;;;;;;;5113245;28;19915;-75
2022/03/24 16:31:54;;;;;;;;;;;;;;;;;;5115037;28;20036;-75
2022/03/24 16:34:20;;;;;;;;;;;;;;;;;;5114615;28;20075;-75
2022/03/24 16:36:45;;;;;;;;;;;;;;;;;;5115080;28;19915;-74
2022/03/24 16:39:11;;;;;;;;;;;;;;;;;;5115344;28;19970;-75
2022/03/24 16:41:36;;;;;;;;;;;;;;;;;;5115057;28;19943;-75
2022/03/24 16:44:02;;;;;;;;;;;;;;;;;;5115123;28;19916;-76
2022/03/24 16:46:28;;;;;;;;;;;;;;;;;;5113732;28;19916;-76
2022/03/24 16:48:54;;;;;;;;;;;;;;;;;;5114377;28;20285;-77
2022/03/24 16:51:19;;;;;;;;;;;;;;;;;;5115122;28;20003;-75